Time;durP1;ratioP1;P1;durP2;ratioP2;P2;SDS_P1;SDS_P2;PMS_P1;PMS_P2;Temp;Humidity;BMP_temperature;BMP_pressure;BME280_temperature;BME280_humidity;BME280_pressure;Samples;Min_cycle;Max_cycle;Signal;HPM_P1;HPM_P2
2023/01/16 00:01:04;;;;;;;3.38;0.98;;;;;;;;;;2075089;28;20116;-72
2023/01/16 00:02:23;;;;;;;1.73;0.80;;;;;;;;;;2077421;28;20033;-71
2023/01/16 00:03:43;;;;;;;4.93;1.15;;;;;;;;;;2078676;28;20037;-72
2023/01/16 00:05:01;;;;;;;1.92;1.20;;;;;;;;;;2078039;28;20520;-72
2023/01/16 00:06:20;;;;;;;3.03;0.93;;;;;;;;;;2075107;28;20426;-71
2023/01/16 00:07:39;;;;;;;5.18;1.13;;;;;;;;;;2077753;28;20029;-72
2023/01/16 00:08:58;;;;;;;3.05;0.85;;;;;;;;;;2078080;28;20033;-71
2023/01/16 00:10:17;;;;;;;2.55;0.90;;;;;;;;;;2077134;28;20429;-72
2023/01/16 00:11:36;;;;;;;4.05;1.02;;;;;;;;;;2079783;28;20080;-72
2023/01/16 00:12:55;;;;;;;2.05;0.85;;;;;;;;;;2079357;28;20553;-72
2023/01/16 00:14:14;;;;;;;3.78;0.98;;;;;;;;;;2079142;28;20030;-72
2023/01/16 00:15:33;;;;;;;4.68;0.70;;;;;;;;;;2077155;28;20483;-72
2023/01/16 00:16:52;;;;;;;3.85;0.80;;;;;;;;;;2079467;28;20049;-72
2023/01/16 00:18:11;;;;;;;4.10;0.70;;;;;;;;;;2076883;28;20073;-72
2023/01/16 00:19:30;;;;;;;4.82;0.77;;;;;;;;;;2075686;28;20030;-71
2023/01/16 00:20:49;;;;;;;2.30;0.70;;;;;;;;;;2080578;28;20501;-71
2023/01/16 00:22:08;;;;;;;2.13;0.90;;;;;;;;;;2081699;28;20037;-72
2023/01/16 00:23:27;;;;;;;2.22;0.68;;;;;;;;;;2078116;28;20037;-72
2023/01/16 00:24:46;;;;;;;2.50;0.77;;;;;;;;;;2079350;28;20079;-72
2023/01/16 00:26:09;;;;;;;1.35;0.32;;;;;;;;;;2081179;28;20092;-72
2023/01/16 00:27:28;;;;;;;;;;;;;;;;;;2080754;28;20041;-72
2023/01/16 00:28:47;;;;;;;0.57;0.57;;;;;;;;;;2079291;28;20362;-72
2023/01/16 00:30:06;;;;;;;2.30;0.65;;;;;;;;;;2078581;28;20053;-71
2023/01/16 00:31:25;;;;;;;2.33;0.75;;;;;;;;;;2078785;28;20506;-71
2023/01/16 00:32:44;;;;;;;4.00;0.70;;;;;;;;;;2077979;28;20120;-72
2023/01/16 00:34:03;;;;;;;2.30;0.75;;;;;;;;;;2078033;28;20104;-72
2023/01/16 00:35:22;;;;;;;1.77;0.45;;;;;;;;;;2080053;28;20053;-72
2023/01/16 00:36:41;;;;;;;1.10;0.70;;;;;;;;;;2082063;28;20030;-72
2023/01/16 00:38:00;;;;;;;2.03;0.63;;;;;;;;;;2079641;28;20589;-71
2023/01/16 00:39:19;;;;;;;2.47;0.57;;;;;;;;;;2078178;28;20041;-71
2023/01/16 00:40:38;;;;;;;3.55;0.63;;;;;;;;;;2076263;28;20941;-71
2023/01/16 00:41:57;;;;;;;0.90;0.50;;;;;;;;;;2076849;28;20100;-71
2023/01/16 00:43:16;;;;;;;3.67;0.70;;;;;;;;;;2074363;28;20037;-71
2023/01/16 00:44:35;;;;;;;5.20;0.50;;;;;;;;;;2073853;28;20025;-72
2023/01/16 00:45:56;;;;;;;1.73;0.50;;;;;;;;;;2078245;28;20030;-72
2023/01/16 00:47:14;;;;;;;2.38;0.47;;;;;;;;;;2078769;28;20081;-72
2023/01/16 00:48:33;;;;;;;1.52;0.60;;;;;;;;;;2075049;28;20033;-71
2023/01/16 00:49:53;;;;;;;1.60;0.60;;;;;;;;;;2077429;28;21187;-71
2023/01/16 00:51:12;;;;;;;1.13;0.65;;;;;;;;;;2076313;28;20033;-73
2023/01/16 00:52:31;;;;;;;2.03;0.60;;;;;;;;;;2078941;28;20049;-71
2023/01/16 00:53:50;;;;;;;0.55;0.55;;;;;;;;;;2077309;28;20030;-71
2023/01/16 00:55:09;;;;;;;3.30;0.70;;;;;;;;;;2078533;28;20041;-72
2023/01/16 00:56:28;;;;;;;1.88;0.60;;;;;;;;;;2079742;28;20029;-73
2023/01/16 00:57:47;;;;;;;2.63;0.50;;;;;;;;;;2076810;28;20034;-72
2023/01/16 00:59:06;;;;;;;1.85;0.70;;;;;;;;;;2075462;28;20030;-71
2023/01/16 01:00:25;;;;;;;1.25;0.52;;;;;;;;;;2078443;28;20060;-72
2023/01/16 01:01:44;;;;;;;0.80;0.30;;;;;;;;;;2076359;28;20029;-73
2023/01/16 01:03:03;;;;;;;2.28;0.40;;;;;;;;;;2077082;28;20410;-72
2023/01/16 01:04:23;;;;;;;1.02;0.57;;;;;;;;;;2076262;28;20124;-71
2023/01/16 01:05:42;;;;;;;1.80;0.80;;;;;;;;;;2078538;28;20533;-71
2023/01/16 01:07:01;;;;;;;1.02;0.43;;;;;;;;;;2074724;28;20037;-71
2023/01/16 01:08:20;;;;;;;2.00;0.40;;;;;;;;;;2080362;28;20430;-71
2023/01/16 01:09:39;;;;;;;1.13;0.30;;;;;;;;;;2076567;28;20075;-72
2023/01/16 01:10:57;;;;;;;0.32;0.32;;;;;;;;;;2078931;28;20389;-72
2023/01/16 01:12:16;;;;;;;1.60;0.30;;;;;;;;;;2075014;28;20030;-71
2023/01/16 01:13:35;;;;;;;0.32;0.22;;;;;;;;;;2079643;28;20022;-72
2023/01/16 01:14:55;;;;;;;0.63;0.30;;;;;;;;;;2080015;28;20124;-71
2023/01/16 01:16:14;;;;;;;0.60;0.20;;;;;;;;;;2077598;28;20053;-71
2023/01/16 01:17:33;;;;;;;0.30;0.30;;;;;;;;;;2077279;28;20029;-72
2023/01/16 01:18:52;;;;;;;0.32;0.30;;;;;;;;;;2077218;28;20181;-72
2023/01/16 01:20:11;;;;;;;1.65;0.45;;;;;;;;;;2078673;28;20030;-72
2023/01/16 01:21:30;;;;;;;0.20;0.20;;;;;;;;;;2076642;28;20033;-72
2023/01/16 01:22:49;;;;;;;1.10;0.35;;;;;;;;;;2075775;28;20046;-73
2023/01/16 01:24:08;;;;;;;0.45;0.28;;;;;;;;;;2078051;28;20196;-71
2023/01/16 01:25:27;;;;;;;2.05;0.20;;;;;;;;;;2076779;28;20669;-72
2023/01/16 01:26:46;;;;;;;1.17;0.60;;;;;;;;;;2076662;28;20136;-71
2023/01/16 01:28:05;;;;;;;0.93;0.20;;;;;;;;;;2074996;28;20037;-72
2023/01/16 01:29:24;;;;;;;0.20;0.10;;;;;;;;;;2076455;28;20061;-72
2023/01/16 01:30:43;;;;;;;0.57;0.20;;;;;;;;;;2077313;28;20041;-72
2023/01/16 01:32:02;;;;;;;0.38;0.15;;;;;;;;;;2076278;28;20041;-72
2023/01/16 01:33:21;;;;;;;0.52;0.28;;;;;;;;;;2074905;28;20116;-72
2023/01/16 01:34:40;;;;;;;0.55;0.22;;;;;;;;;;2077041;28;20461;-71
2023/01/16 01:35:59;;;;;;;0.30;0.20;;;;;;;;;;2074817;28;20411;-71
2023/01/16 01:37:18;;;;;;;0.38;0.38;;;;;;;;;;2074684;28;20059;-71
2023/01/16 01:38:37;;;;;;;0.82;0.30;;;;;;;;;;2078564;28;20030;-71
2023/01/16 01:39:56;;;;;;;9.05;0.47;;;;;;;;;;2078165;28;20651;-72
2023/01/16 01:41:16;;;;;;;0.75;0.20;;;;;;;;;;2077523;28;20076;-72
2023/01/16 01:42:51;;;;;;;0.10;0.10;;;;;;;;;;2074743;28;20539;-72
2023/01/16 01:44:29;;;;;;;0.20;0.20;;;;;;;;;;2077260;28;20038;-71
2023/01/16 01:45:53;;;;;;;2.83;0.40;;;;;;;;;;2074947;28;20041;-71
2023/01/16 01:47:13;;;;;;;0.68;0.30;;;;;;;;;;2077714;28;20057;-72
2023/01/16 01:48:39;;;;;;;2.15;0.20;;;;;;;;;;2075398;28;20029;-72
2023/01/16 01:49:59;;;;;;;0.20;0.20;;;;;;;;;;2074906;28;20029;-72
2023/01/16 01:51:26;;;;;;;0.98;0.38;;;;;;;;;;2076065;28;20025;-72
2023/01/16 01:52:45;;;;;;;0.90;0.15;;;;;;;;;;2078552;28;20034;-71
2023/01/16 01:54:07;;;;;;;0.40;0.20;;;;;;;;;;2076971;28;20049;-71
2023/01/16 01:55:26;;;;;;;0.38;0.20;;;;;;;;;;2075790;28;20026;-72
2023/01/16 01:56:48;;;;;;;1.58;0.63;;;;;;;;;;2076277;28;20117;-70
2023/01/16 01:58:07;;;;;;;0.10;0.10;;;;;;;;;;2074972;28;20037;-70
2023/01/16 01:59:33;;;;;;;2.53;0.57;;;;;;;;;;2076930;28;20033;-72
2023/01/16 02:00:53;;;;;;;0.55;0.10;;;;;;;;;;2075497;28;20030;-72
2023/01/16 02:02:14;;;;;;;2.47;0.30;;;;;;;;;;2077539;28;20029;-71
2023/01/16 02:03:41;;;;;;;0.35;0.22;;;;;;;;;;2076928;28;20034;-72
2023/01/16 02:05:03;;;;;;;2.03;0.25;;;;;;;;;;2074802;28;20401;-71
2023/01/16 02:06:27;;;;;;;0.45;0.20;;;;;;;;;;2076940;28;20033;-71
2023/01/16 02:07:46;;;;;;;2.80;0.50;;;;;;;;;;2078964;28;20122;-71
2023/01/16 02:09:05;;;;;;;0.57;0.20;;;;;;;;;;2076764;28;20025;-70
2023/01/16 02:10:37;;;;;;;0.50;0.10;;;;;;;;;;2074329;28;22037;-71
2023/01/16 02:12:05;;;;;;;0.95;0.45;;;;;;;;;;2075297;28;20067;-70
2023/01/16 02:13:24;;;;;;;0.20;0.17;;;;;;;;;;2077684;28;20022;-71
2023/01/16 02:14:45;;;;;;;0.30;0.10;;;;;;;;;;2076601;28;20464;-72
2023/01/16 02:19:29;;;;;;;1.02;0.10;;;;;;;;;;2075433;28;21359;-72
2023/01/16 02:21:04;;;;;;;0.30;0.10;;;;;;;;;;2076239;28;20029;-71
2023/01/16 02:22:43;;;;;;;0.35;0.20;;;;;;;;;;2075671;28;20034;-71
2023/01/16 02:24:17;;;;;;;0.30;0.30;;;;;;;;;;2075193;28;20935;-71
2023/01/16 02:25:39;;;;;;;0.45;0.22;;;;;;;;;;2075444;28;20589;-71
2023/01/16 02:27:27;;;;;;;0.10;0.10;;;;;;;;;;2076254;28;20491;-72
2023/01/16 02:28:46;;;;;;;0.20;0.20;;;;;;;;;;2076086;28;20049;-70
2023/01/16 02:30:23;;;;;;;0.25;0.20;;;;;;;;;;2075374;28;20030;-71
2023/01/16 02:31:48;;;;;;;0.10;0.10;;;;;;;;;;2074296;28;20033;-71
2023/01/16 02:33:27;;;;;;;0.47;0.20;;;;;;;;;;2076623;28;20450;-71
2023/01/16 02:35:04;;;;;;;0.70;0.20;;;;;;;;;;2077393;28;20041;-71
2023/01/16 02:36:33;;;;;;;0.65;0.30;;;;;;;;;;2076378;28;20038;-71
2023/01/16 02:37:56;;;;;;;0.10;0.10;;;;;;;;;;2076693;28;20549;-70
2023/01/16 02:39:15;;;;;;;1.27;0.20;;;;;;;;;;2074471;28;20028;-72
2023/01/16 02:40:34;;;;;;;0.40;0.20;;;;;;;;;;2075045;28;20037;-71
2023/01/16 02:42:08;;;;;;;0.20;0.20;;;;;;;;;;2078016;28;20037;-71
2023/01/16 02:43:36;;;;;;;1.17;0.20;;;;;;;;;;2078789;28;20029;-71
2023/01/16 02:44:58;;;;;;;0.50;0.17;;;;;;;;;;2076920;28;20064;-70
2023/01/16 02:46:36;;;;;;;1.33;0.20;;;;;;;;;;2077026;28;20148;-71
2023/01/16 02:48:02;;;;;;;0.17;0.17;;;;;;;;;;2077475;28;20516;-70
2023/01/16 02:49:28;;;;;;;0.20;0.20;;;;;;;;;;2077352;28;20038;-71
2023/01/16 02:50:53;;;;;;;0.50;0.20;;;;;;;;;;2077331;28;20033;-71
2023/01/16 02:52:21;;;;;;;0.40;0.20;;;;;;;;;;2078838;28;20125;-72
2023/01/16 02:53:53;;;;;;;0.45;0.10;;;;;;;;;;2075473;28;20116;-72
2023/01/16 02:55:31;;;;;;;0.10;0.10;;;;;;;;;;2074295;28;20433;-71
2023/01/16 02:56:53;;;;;;;0.50;0.20;;;;;;;;;;2075958;28;20048;-73
2023/01/16 02:58:14;;;;;;;1.38;0.10;;;;;;;;;;2078064;28;20401;-72
2023/01/16 02:59:33;;;;;;;0.30;0.10;;;;;;;;;;2077123;28;20036;-72
2023/01/16 03:00:53;;;;;;;0.20;0.20;;;;;;;;;;2073896;28;20037;-72
2023/01/16 03:02:12;;;;;;;1.50;0.35;;;;;;;;;;2074319;28;20026;-72
2023/01/16 03:03:39;;;;;;;0.57;0.30;;;;;;;;;;2076805;28;20065;-72
2023/01/16 03:04:58;;;;;;;0.47;0.20;;;;;;;;;;2079077;28;20060;-73
2023/01/16 03:06:19;;;;;;;0.20;0.20;;;;;;;;;;2074796;28;20069;-71
2023/01/16 03:07:49;;;;;;;0.30;0.20;;;;;;;;;;2076265;28;20073;-74
2023/01/16 03:09:18;;;;;;;1.10;0.40;;;;;;;;;;2077390;28;20037;-71
2023/01/16 03:10:46;;;;;;;2.17;0.20;;;;;;;;;;2075773;28;20033;-72
2023/01/16 03:12:17;;;;;;;0.20;0.20;;;;;;;;;;2074465;28;20037;-72
2023/01/16 03:13:53;;;;;;;0.20;0.10;;;;;;;;;;2079118;28;20339;-72
2023/01/16 03:15:26;;;;;;;0.22;0.22;;;;;;;;;;2077335;28;20490;-72
2023/01/16 03:16:48;;;;;;;0.20;0.20;;;;;;;;;;2080088;28;20344;-72
2023/01/16 03:18:18;;;;;;;0.80;0.25;;;;;;;;;;2078117;28;20033;-71
2023/01/16 03:19:49;;;;;;;1.00;0.20;;;;;;;;;;2077791;28;20482;-72
2023/01/16 03:21:46;;;;;;;0.25;0.17;;;;;;;;;;2076533;28;20150;-73
2023/01/16 03:23:12;;;;;;;0.47;0.30;;;;;;;;;;2077024;28;20426;-71
2023/01/16 03:24:43;;;;;;;0.13;0.10;;;;;;;;;;2077378;28;20025;-72
2023/01/16 03:26:06;;;;;;;0.20;0.20;;;;;;;;;;2075381;28;20603;-72
2023/01/16 03:27:41;;;;;;;0.68;0.20;;;;;;;;;;2076714;28;20033;-71
2023/01/16 03:29:18;;;;;;;0.40;0.20;;;;;;;;;;2078271;28;20065;-71
2023/01/16 03:30:37;;;;;;;0.17;0.17;;;;;;;;;;2078103;28;20025;-72
2023/01/16 03:32:09;;;;;;;1.10;0.30;;;;;;;;;;2077082;28;20026;-72
2023/01/16 03:33:42;;;;;;;1.45;0.30;;;;;;;;;;2076709;28;20033;-72
2023/01/16 03:35:16;;;;;;;0.47;0.30;;;;;;;;;;2078643;28;20073;-71
2023/01/16 03:36:47;;;;;;;0.43;0.10;;;;;;;;;;2077106;28;20037;-72
2023/01/16 03:38:08;;;;;;;1.30;0.20;;;;;;;;;;2076983;28;20116;-72
2023/01/16 03:39:35;;;;;;;1.48;0.20;;;;;;;;;;2079836;28;20034;-72
2023/01/16 03:40:56;;;;;;;0.90;0.20;;;;;;;;;;2077879;28;20029;-72
2023/01/16 03:42:22;;;;;;;0.32;0.15;;;;;;;;;;2079909;28;20030;-72
2023/01/16 03:43:42;;;;;;;1.02;0.20;;;;;;;;;;2078653;28;20029;-72
2023/01/16 03:45:05;;;;;;;0.20;0.13;;;;;;;;;;2078603;28;20037;-71
2023/01/16 03:46:29;;;;;;;0.08;0.08;;;;;;;;;;2075636;28;20029;-72
2023/01/16 03:47:51;;;;;;;0.40;0.10;;;;;;;;;;2077237;28;20132;-72
2023/01/16 03:49:21;;;;;;;0.15;0.13;;;;;;;;;;2077941;28;20498;-72
2023/01/16 03:50:44;;;;;;;0.43;0.20;;;;;;;;;;2079736;28;20483;-71
2023/01/16 03:52:04;;;;;;;0.15;0.15;;;;;;;;;;2078586;28;20112;-73
2023/01/16 03:53:27;;;;;;;0.60;0.20;;;;;;;;;;2077852;28;20148;-72
2023/01/16 03:55:01;;;;;;;0.85;0.20;;;;;;;;;;2078797;28;20026;-71
2023/01/16 03:56:23;;;;;;;0.95;0.17;;;;;;;;;;2077779;28;20038;-71
2023/01/16 03:58:03;;;;;;;0.20;0.10;;;;;;;;;;2077267;28;20061;-72
2023/01/16 03:59:22;;;;;;;0.10;0.10;;;;;;;;;;2078585;28;20874;-72
2023/01/16 04:00:53;;;;;;;0.85;0.20;;;;;;;;;;2078926;28;20478;-72
2023/01/16 04:02:12;;;;;;;0.47;0.10;;;;;;;;;;2078815;28;20021;-72
2023/01/16 04:03:37;;;;;;;1.17;0.10;;;;;;;;;;2077757;28;20025;-72
2023/01/16 04:05:28;;;;;;;0.50;0.10;;;;;;;;;;2079804;28;20041;-72
2023/01/16 04:06:59;;;;;;;1.13;0.10;;;;;;;;;;2077483;28;20030;-72
2023/01/16 04:08:22;;;;;;;0.20;0.10;;;;;;;;;;2078347;28;20053;-72
2023/01/16 04:09:50;;;;;;;0.30;0.20;;;;;;;;;;2079035;28;20483;-71
2023/01/16 04:11:10;;;;;;;1.17;0.20;;;;;;;;;;2077577;28;20033;-71
2023/01/16 04:12:32;;;;;;;0.10;0.10;;;;;;;;;;2079014;28;20029;-72
2023/01/16 04:13:54;;;;;;;0.47;0.20;;;;;;;;;;2079486;28;20021;-72
2023/01/16 04:15:15;;;;;;;1.02;0.10;;;;;;;;;;2076463;28;20030;-72
2023/01/16 04:16:35;;;;;;;1.55;0.20;;;;;;;;;;2078654;28;20034;-72
2023/01/16 04:17:54;;;;;;;1.75;0.13;;;;;;;;;;2078501;28;20025;-72
2023/01/16 04:19:14;;;;;;;0.20;0.20;;;;;;;;;;2074898;28;20104;-72
2023/01/16 04:20:34;;;;;;;0.17;0.17;;;;;;;;;;2077153;28;20038;-72
2023/01/16 04:21:53;;;;;;;0.43;0.20;;;;;;;;;;2076953;28;20034;-73
2023/01/16 04:23:13;;;;;;;0.57;0.30;;;;;;;;;;2077971;28;20026;-72
2023/01/16 04:24:32;;;;;;;0.50;0.20;;;;;;;;;;2081472;28;21291;-73
2023/01/16 04:25:51;;;;;;;0.20;0.20;;;;;;;;;;2079486;28;20475;-73
2023/01/16 04:27:10;;;;;;;0.95;0.22;;;;;;;;;;2078300;28;20041;-72
2023/01/16 04:28:29;;;;;;;0.80;0.20;;;;;;;;;;2080701;28;20033;-73
2023/01/16 04:29:48;;;;;;;0.25;0.20;;;;;;;;;;2079275;28;20573;-72
2023/01/16 04:31:07;;;;;;;0.45;0.20;;;;;;;;;;2079043;28;20121;-72
2023/01/16 04:32:26;;;;;;;2.20;0.20;;;;;;;;;;2077965;28;20029;-72
2023/01/16 04:33:45;;;;;;;0.20;0.20;;;;;;;;;;2077317;28;20018;-72
2023/01/16 04:35:04;;;;;;;0.65;0.28;;;;;;;;;;2081600;28;20482;-71
2023/01/16 04:36:23;;;;;;;1.33;0.20;;;;;;;;;;2081951;28;20136;-72
2023/01/16 04:37:42;;;;;;;0.40;0.40;;;;;;;;;;2079813;28;20033;-72
2023/01/16 04:39:01;;;;;;;0.35;0.20;;;;;;;;;;2080678;28;20037;-73
2023/01/16 04:40:20;;;;;;;0.22;0.22;;;;;;;;;;2079053;28;20453;-72
2023/01/16 04:41:40;;;;;;;0.55;0.30;;;;;;;;;;2078883;28;20475;-71
2023/01/16 04:42:59;;;;;;;0.28;0.15;;;;;;;;;;2076392;28;20513;-73
2023/01/16 04:44:18;;;;;;;0.30;0.25;;;;;;;;;;2082054;28;20461;-73
2023/01/16 04:45:39;;;;;;;0.60;0.35;;;;;;;;;;2079186;28;20116;-72
2023/01/16 04:46:57;;;;;;;1.17;0.28;;;;;;;;;;2078721;28;20112;-72
2023/01/16 04:48:16;;;;;;;1.50;0.25;;;;;;;;;;2080218;28;20077;-72
2023/01/16 04:49:35;;;;;;;0.85;0.60;;;;;;;;;;2077693;28;20045;-72
2023/01/16 04:50:54;;;;;;;0.30;0.20;;;;;;;;;;2078551;28;20033;-73
2023/01/16 04:52:14;;;;;;;0.20;0.20;;;;;;;;;;2081730;28;20022;-71
2023/01/16 04:53:33;;;;;;;1.17;0.20;;;;;;;;;;2079113;28;20466;-72
2023/01/16 04:54:52;;;;;;;0.45;0.30;;;;;;;;;;2078084;28;20467;-72
2023/01/16 04:56:11;;;;;;;0.70;0.20;;;;;;;;;;2079798;28;20493;-73
2023/01/16 04:57:30;;;;;;;0.45;0.30;;;;;;;;;;2078004;28;20030;-73
2023/01/16 04:58:50;;;;;;;0.98;0.38;;;;;;;;;;2080152;28;20021;-75
2023/01/16 05:00:10;;;;;;;0.88;0.40;;;;;;;;;;2079000;28;20026;-72
2023/01/16 05:01:34;;;;;;;0.20;0.20;;;;;;;;;;2078444;28;20037;-73
2023/01/16 05:02:53;;;;;;;0.47;0.22;;;;;;;;;;2077919;28;20072;-72
2023/01/16 05:04:13;;;;;;;0.52;0.30;;;;;;;;;;2081048;28;20037;-72
2023/01/16 05:05:32;;;;;;;0.57;0.30;;;;;;;;;;2080116;28;20112;-73
2023/01/16 05:06:51;;;;;;;1.38;0.20;;;;;;;;;;2081131;28;20061;-72
2023/01/16 05:08:16;;;;;;;1.17;0.20;;;;;;;;;;2079053;28;20041;-72
2023/01/16 05:09:35;;;;;;;0.95;0.28;;;;;;;;;;2080895;28;20033;-73
2023/01/16 05:10:54;;;;;;;0.57;0.35;;;;;;;;;;2078592;28;20061;-73
2023/01/16 05:12:13;;;;;;;0.52;0.20;;;;;;;;;;2077958;28;20033;-72
2023/01/16 05:13:32;;;;;;;1.63;0.30;;;;;;;;;;2076068;28;20034;-71
2023/01/16 05:14:51;;;;;;;0.93;0.30;;;;;;;;;;2077384;28;20109;-72
2023/01/16 05:16:10;;;;;;;0.30;0.30;;;;;;;;;;2077241;28;20383;-71
2023/01/16 05:17:29;;;;;;;0.20;0.20;;;;;;;;;;2075859;28;20022;-72
2023/01/16 05:18:48;;;;;;;0.43;0.20;;;;;;;;;;2080175;28;20025;-72
2023/01/16 05:20:07;;;;;;;0.80;0.20;;;;;;;;;;2078041;28;20117;-71
2023/01/16 05:21:26;;;;;;;0.30;0.20;;;;;;;;;;2077741;28;20038;-72
2023/01/16 05:22:45;;;;;;;0.32;0.20;;;;;;;;;;2078376;28;20038;-72
2023/01/16 05:24:04;;;;;;;0.20;0.20;;;;;;;;;;2077173;28;20034;-72
2023/01/16 05:25:23;;;;;;;0.40;0.25;;;;;;;;;;2078729;28;20053;-72
2023/01/16 05:26:42;;;;;;;0.40;0.40;;;;;;;;;;2080186;28;20045;-72
2023/01/16 05:28:01;;;;;;;0.43;0.30;;;;;;;;;;2079131;28;20064;-73
2023/01/16 05:29:20;;;;;;;0.75;0.45;;;;;;;;;;2080406;28;20029;-72
2023/01/16 05:30:39;;;;;;;0.20;0.20;;;;;;;;;;2079394;28;20022;-73
2023/01/16 05:31:58;;;;;;;0.38;0.30;;;;;;;;;;2076605;28;20025;-73
2023/01/16 05:33:17;;;;;;;1.10;0.20;;;;;;;;;;2073157;28;20106;-73
2023/01/16 05:34:36;;;;;;;0.35;0.30;;;;;;;;;;2078290;28;20026;-72
2023/01/16 05:35:55;;;;;;;0.30;0.28;;;;;;;;;;2078406;28;20022;-72
2023/01/16 05:37:14;;;;;;;0.30;0.30;;;;;;;;;;2080205;28;20076;-72
2023/01/16 05:38:33;;;;;;;0.70;0.30;;;;;;;;;;2078595;28;20061;-72
2023/01/16 05:39:52;;;;;;;2.30;0.20;;;;;;;;;;2078410;28;20037;-72
2023/01/16 05:41:11;;;;;;;1.08;0.30;;;;;;;;;;2077074;28;20022;-73
2023/01/16 05:42:30;;;;;;;1.35;0.40;;;;;;;;;;2079157;28;20052;-72
2023/01/16 05:43:49;;;;;;;1.35;0.40;;;;;;;;;;2074409;28;20497;-72
2023/01/16 05:45:08;;;;;;;0.35;0.17;;;;;;;;;;2078196;28;20041;-71
2023/01/16 05:46:27;;;;;;;1.60;0.30;;;;;;;;;;2081373;28;20405;-72
2023/01/16 05:47:46;;;;;;;1.88;0.30;;;;;;;;;;2078812;28;20080;-72
2023/01/16 05:49:05;;;;;;;0.13;0.13;;;;;;;;;;2080200;28;20585;-74
2023/01/16 05:50:24;;;;;;;0.30;0.30;;;;;;;;;;2079252;28;20034;-70
2023/01/16 05:51:42;;;;;;;0.20;0.20;;;;;;;;;;2081887;28;20055;-71
2023/01/16 05:53:01;;;;;;;0.30;0.20;;;;;;;;;;2079567;28;20401;-72
2023/01/16 05:54:20;;;;;;;1.05;0.20;;;;;;;;;;2079518;28;20033;-70
2023/01/16 05:55:44;;;;;;;0.45;0.28;;;;;;;;;;2077039;28;20025;-72
2023/01/16 05:57:03;;;;;;;0.30;0.30;;;;;;;;;;2080670;28;20061;-71
2023/01/16 05:58:22;;;;;;;0.75;0.38;;;;;;;;;;2079299;28;20159;-71
2023/01/16 05:59:41;;;;;;;0.30;0.22;;;;;;;;;;2080043;28;20045;-71
2023/01/16 06:01:00;;;;;;;0.25;0.25;;;;;;;;;;2080481;28;20037;-74
2023/01/16 06:02:19;;;;;;;0.20;0.20;;;;;;;;;;2078439;28;20069;-71
2023/01/16 06:03:39;;;;;;;0.30;0.20;;;;;;;;;;2080416;28;20029;-73
2023/01/16 06:04:58;;;;;;;0.63;0.30;;;;;;;;;;2079928;28;20026;-73
2023/01/16 06:06:17;;;;;;;1.33;0.35;;;;;;;;;;2080887;28;20052;-71
2023/01/16 06:07:36;;;;;;;1.55;0.30;;;;;;;;;;2078564;28;20393;-69
2023/01/16 06:08:55;;;;;;;0.20;0.20;;;;;;;;;;2078646;28;20490;-72
2023/01/16 06:10:15;;;;;;;1.00;0.30;;;;;;;;;;2080813;28;20101;-72
2023/01/16 06:11:34;;;;;;;0.80;0.40;;;;;;;;;;2079510;28;20041;-72
2023/01/16 06:12:53;;;;;;;1.92;0.40;;;;;;;;;;2079166;28;20033;-73
2023/01/16 06:14:12;;;;;;;0.38;0.30;;;;;;;;;;2078414;28;20030;-72
2023/01/16 06:15:31;;;;;;;0.28;0.22;;;;;;;;;;2080567;28;20116;-72
2023/01/16 06:16:50;;;;;;;0.77;0.30;;;;;;;;;;2077397;28;20026;-72
2023/01/16 06:18:09;;;;;;;0.30;0.30;;;;;;;;;;2079281;28;20037;-72
2023/01/16 06:19:28;;;;;;;0.32;0.28;;;;;;;;;;2077997;28;20022;-72
2023/01/16 06:20:47;;;;;;;0.73;0.57;;;;;;;;;;2072957;28;20116;-71
2023/01/16 06:22:06;;;;;;;0.30;0.30;;;;;;;;;;2075376;28;20034;-71
2023/01/16 06:23:25;;;;;;;0.82;0.30;;;;;;;;;;2075622;28;20038;-71
2023/01/16 06:24:44;;;;;;;0.30;0.20;;;;;;;;;;2078453;28;20037;-71
2023/01/16 06:26:05;;;;;;;0.30;0.30;;;;;;;;;;2075463;28;20964;-70
2023/01/16 06:27:24;;;;;;;1.30;0.68;;;;;;;;;;2078335;28;20474;-71
2023/01/16 06:28:43;;;;;;;1.25;0.43;;;;;;;;;;2078265;28;20037;-70
2023/01/16 06:30:02;;;;;;;0.60;0.30;;;;;;;;;;2076130;28;20422;-70
2023/01/16 06:31:22;;;;;;;0.10;0.10;;;;;;;;;;2071961;28;20057;-70
2023/01/16 06:32:41;;;;;;;0.17;0.17;;;;;;;;;;2076933;28;20029;-70
2023/01/16 06:34:00;;;;;;;0.63;0.25;;;;;;;;;;2076560;28;20033;-71
2023/01/16 06:35:19;;;;;;;0.85;0.30;;;;;;;;;;2080071;28;20022;-70
2023/01/16 06:36:38;;;;;;;0.20;0.20;;;;;;;;;;2078126;28;20017;-70
2023/01/16 06:37:57;;;;;;;0.30;0.20;;;;;;;;;;2076045;28;20037;-70
2023/01/16 06:39:16;;;;;;;0.20;0.20;;;;;;;;;;2075203;28;20026;-70
2023/01/16 06:40:35;;;;;;;1.00;0.40;;;;;;;;;;2074586;28;20041;-70
2023/01/16 06:41:54;;;;;;;1.38;0.32;;;;;;;;;;2081449;28;20029;-70
2023/01/16 06:43:12;;;;;;;1.30;0.25;;;;;;;;;;2077940;28;20037;-70
2023/01/16 06:44:32;;;;;;;0.17;0.17;;;;;;;;;;2074244;28;20045;-70
2023/01/16 06:45:51;;;;;;;2.05;0.20;;;;;;;;;;2074238;28;20030;-70
2023/01/16 06:47:10;;;;;;;0.40;0.30;;;;;;;;;;2072944;28;20506;-70
2023/01/16 06:48:31;;;;;;;0.25;0.20;;;;;;;;;;2076829;28;20482;-70
2023/01/16 06:49:50;;;;;;;0.30;0.30;;;;;;;;;;2077892;28;20077;-70
2023/01/16 06:51:09;;;;;;;0.45;0.30;;;;;;;;;;2078661;28;20033;-70
2023/01/16 06:52:28;;;;;;;1.95;0.30;;;;;;;;;;2079487;28;20144;-70
2023/01/16 06:53:47;;;;;;;0.30;0.30;;;;;;;;;;2080530;28;20409;-70
2023/01/16 06:55:06;;;;;;;0.45;0.20;;;;;;;;;;2078322;28;20483;-70
2023/01/16 06:56:26;;;;;;;0.20;0.20;;;;;;;;;;2079269;28;20065;-70
2023/01/16 06:57:45;;;;;;;0.35;0.35;;;;;;;;;;2080232;28;20026;-71
2023/01/16 06:59:04;;;;;;;0.38;0.35;;;;;;;;;;2079035;28;20601;-70
2023/01/16 07:00:23;;;;;;;0.22;0.20;;;;;;;;;;2080601;28;20033;-70
2023/01/16 07:01:42;;;;;;;0.20;0.20;;;;;;;;;;2076764;28;20057;-70
2023/01/16 07:03:01;;;;;;;0.30;0.20;;;;;;;;;;2080379;28;20144;-70
2023/01/16 07:04:20;;;;;;;0.30;0.30;;;;;;;;;;2081985;28;20541;-70
2023/01/16 07:05:39;;;;;;;0.47;0.30;;;;;;;;;;2080491;28;20069;-70
2023/01/16 07:06:58;;;;;;;0.30;0.30;;;;;;;;;;2078479;28;20060;-70
2023/01/16 07:08:17;;;;;;;0.20;0.20;;;;;;;;;;2078001;28;20494;-70
2023/01/16 07:09:36;;;;;;;0.40;0.40;;;;;;;;;;2077982;28;20030;-70
2023/01/16 07:10:59;;;;;;;0.63;0.30;;;;;;;;;;2079304;28;20041;-70
2023/01/16 07:12:18;;;;;;;1.45;0.13;;;;;;;;;;2079523;28;20505;-70
2023/01/16 07:13:37;;;;;;;0.20;0.20;;;;;;;;;;2080497;28;20033;-70
2023/01/16 07:23:18;;;;;;;0.47;0.20;;;;;;;;;;2079831;28;20037;-70
2023/01/16 07:24:38;;;;;;;0.90;0.40;;;;;;;;;;2079397;28;20033;-70
2023/01/16 07:25:58;;;;;;;0.57;0.35;;;;;;;;;;2079868;28;20242;-70
2023/01/16 07:27:17;;;;;;;0.57;0.30;;;;;;;;;;2080708;28;20045;-70
2023/01/16 07:28:36;;;;;;;0.10;0.10;;;;;;;;;;2080390;28;20029;-70
2023/01/16 07:29:55;;;;;;;0.52;0.20;;;;;;;;;;2079102;28;20041;-70
2023/01/16 07:31:14;;;;;;;0.20;0.20;;;;;;;;;;2081126;28;20033;-70
2023/01/16 07:32:34;;;;;;;0.32;0.30;;;;;;;;;;2080181;28;20058;-70
2023/01/16 07:33:53;;;;;;;0.20;0.20;;;;;;;;;;2079810;28;20029;-70
2023/01/16 07:35:13;;;;;;;0.30;0.30;;;;;;;;;;2077902;28;20434;-70
2023/01/16 07:36:31;;;;;;;0.52;0.20;;;;;;;;;;2079403;28;20029;-70
2023/01/16 07:37:52;;;;;;;0.40;0.20;;;;;;;;;;2078838;28;20048;-70
2023/01/16 07:39:11;;;;;;;1.10;0.43;;;;;;;;;;2078645;28;20112;-69
2023/01/16 07:40:30;;;;;;;0.40;0.40;;;;;;;;;;2078120;28;20038;-70
2023/01/16 07:41:50;;;;;;;0.20;0.20;;;;;;;;;;2078665;28;20033;-69
2023/01/16 07:43:08;;;;;;;0.32;0.30;;;;;;;;;;2079627;28;20108;-70
2023/01/16 07:44:27;;;;;;;0.30;0.30;;;;;;;;;;2078566;28;20042;-70
2023/01/16 07:45:51;;;;;;;0.20;0.20;;;;;;;;;;2080666;28;20048;-71
2023/01/16 07:47:12;;;;;;;0.25;0.25;;;;;;;;;;2081209;28;20041;-70
2023/01/16 07:48:31;;;;;;;0.20;0.20;;;;;;;;;;2078983;28;20040;-70
2023/01/16 07:49:50;;;;;;;0.28;0.28;;;;;;;;;;2078260;28;20030;-70
2023/01/16 07:51:09;;;;;;;0.40;0.40;;;;;;;;;;2078314;28;20041;-70
2023/01/16 07:52:28;;;;;;;0.22;0.22;;;;;;;;;;2079772;28;20045;-70
2023/01/16 07:53:47;;;;;;;0.30;0.30;;;;;;;;;;2081812;28;20033;-70
2023/01/16 07:55:06;;;;;;;0.57;0.20;;;;;;;;;;2080449;28;20104;-70
2023/01/16 07:56:25;;;;;;;2.08;0.40;;;;;;;;;;2075847;28;20550;-70
2023/01/16 07:57:44;;;;;;;0.40;0.20;;;;;;;;;;2077720;28;20478;-70
2023/01/16 07:59:02;;;;;;;0.20;0.20;;;;;;;;;;2079800;28;20033;-70
2023/01/16 08:00:21;;;;;;;0.30;0.30;;;;;;;;;;2082422;28;20026;-70
2023/01/16 08:01:42;;;;;;;0.22;0.22;;;;;;;;;;2080511;28;20390;-70
2023/01/16 08:03:01;;;;;;;0.30;0.30;;;;;;;;;;2079986;28;20033;-70
2023/01/16 08:04:20;;;;;;;0.30;0.30;;;;;;;;;;2080845;28;20034;-70
2023/01/16 08:05:39;;;;;;;0.43;0.30;;;;;;;;;;2080234;28;20037;-69
2023/01/16 08:06:58;;;;;;;1.45;0.55;;;;;;;;;;2081124;28;20034;-69
2023/01/16 08:08:18;;;;;;;0.35;0.32;;;;;;;;;;2078263;28;20037;-70
2023/01/16 08:09:37;;;;;;;0.35;0.30;;;;;;;;;;2079653;28;20034;-70
2023/01/16 08:10:57;;;;;;;0.40;0.20;;;;;;;;;;2078424;28;20033;-71
2023/01/16 08:12:15;;;;;;;0.20;0.20;;;;;;;;;;2080961;28;20502;-69
2023/01/16 08:13:40;;;;;;;1.67;0.30;;;;;;;;;;2081927;28;20030;-69
2023/01/16 08:14:59;;;;;;;0.45;0.43;;;;;;;;;;2080788;28;20029;-69
2023/01/16 08:16:18;;;;;;;1.55;0.20;;;;;;;;;;2079805;28;20108;-69
2023/01/16 08:17:40;;;;;;;0.17;0.17;;;;;;;;;;2080340;28;20014;-68
2023/01/16 08:18:59;;;;;;;0.20;0.20;;;;;;;;;;2079670;28;20033;-69
2023/01/16 08:20:18;;;;;;;0.38;0.30;;;;;;;;;;2080301;28;20026;-68